Time;durP1;ratioP1;P1;durP2;ratioP2;P2;SDS_P1;SDS_P2;PMS_P1;PMS_P2;Temp;Humidity;BMP_temperature;BMP_pressure;BME280_temperature;BME280_humidity;BME280_pressure;Samples;Min_cycle;Max_cycle;Signal;HPM_P1;HPM_P2
2022/06/07 00:00:52;;;;;;;5.07;2.00;;;19.00;94.80;;;;;;6946357;28;20073;-80
2022/06/07 00:04:14;;;;;;;5.32;1.65;;;18.90;96.10;;;;;;6944270;28;20105;-78
2022/06/07 00:07:36;;;;;;;4.00;1.50;;;18.70;96.60;;;;;;6945729;28;20126;-79
2022/06/07 00:10:59;;;;;;;3.20;1.27;;;18.60;97.00;;;;;;6942954;28;20511;-79
2022/06/07 00:14:21;;;;;;;7.47;1.50;;;18.50;97.10;;;;;;6944041;28;20068;-79
2022/06/07 00:17:45;;;;;;;3.42;1.40;;;18.50;97.30;;;;;;6943987;28;20038;-78
2022/06/07 00:21:07;;;;;;;4.07;1.48;;;18.50;97.40;;;;;;6942549;28;20506;-80
2022/06/07 00:24:29;;;;;;;4.53;1.15;;;18.50;97.60;;;;;;6943882;28;20076;-80
2022/06/07 00:27:52;;;;;;;2.88;1.48;;;18.50;97.30;;;;;;6941154;28;20073;-79
2022/06/07 00:31:14;;;;;;;5.50;1.25;;;18.50;97.50;;;;;;6944055;28;20084;-78
2022/06/07 00:34:38;;;;;;;2.70;1.33;;;18.60;97.60;;;;;;6943495;28;20053;-79
2022/06/07 00:38:00;;;;;;;4.88;1.50;;;18.50;98.50;;;;;;6942470;28;20126;-79
2022/06/07 00:41:22;;;;;;;3.45;1.38;;;18.50;98.80;;;;;;6942600;28;20084;-79
2022/06/07 00:44:46;;;;;;;5.38;1.30;;;18.40;99.10;;;;;;6942541;28;20447;-78
2022/06/07 00:48:09;;;;;;;4.85;1.50;;;18.40;99.70;;;;;;6942526;28;20046;-80
2022/06/07 00:51:32;;;;;;;3.83;1.20;;;18.20;99.90;;;;;;6942164;28;20504;-80
2022/06/07 00:54:55;;;;;;;3.08;1.50;;;18.10;99.70;;;;;;6942555;28;20045;-80
2022/06/07 00:58:17;;;;;;;3.28;1.20;;;18.10;99.90;;;;;;6942914;28;20072;-80
2022/06/07 01:01:40;;;;;;;3.47;1.13;;;18.10;99.90;;;;;;6941332;28;20104;-80
2022/06/07 01:05:02;;;;;;;3.75;1.20;;;18.00;99.90;;;;;;6941099;28;20120;-79
2022/06/07 01:12:06;;;;;;;2.35;1.00;;;17.90;99.90;;;;;;6942482;28;20053;-78
2022/06/07 01:15:28;;;;;;;3.47;1.15;;;17.90;99.90;;;;;;6942109;28;20045;-80
2022/06/07 01:18:50;;;;;;;3.72;1.20;;;17.90;99.90;;;;;;6920534;28;20515;-79
2022/06/07 01:22:14;;;;;;;4.23;1.30;;;17.90;99.90;;;;;;6941770;28;20084;-80
2022/06/07 01:25:36;;;;;;;3.75;1.35;;;17.90;99.90;;;;;;6941274;28;20358;-80
2022/06/07 01:28:58;;;;;;;4.28;1.30;;;18.00;99.90;;;;;;6940903;28;20052;-80
2022/06/07 01:32:20;;;;;;;3.07;1.37;;;17.90;99.90;;;;;;6942796;28;20487;-80
2022/06/07 01:35:45;;;;;;;5.60;1.43;;;17.90;99.90;;;;;;6941534;28;20088;-78
2022/06/07 01:42:53;;;;;;;3.53;1.40;;;17.90;99.90;;;;;;6866888;28;20049;-80
2022/06/07 01:46:16;;;;;;;4.97;1.40;;;17.80;99.90;;;;;;6941197;28;20092;-80
2022/06/07 01:49:40;;;;;;;3.90;1.20;;;17.90;99.90;;;;;;6939686;28;20094;-80
2022/06/07 01:53:02;;;;;;;3.58;1.40;;;17.90;99.90;;;;;;6940566;28;20503;-80
2022/06/07 01:56:25;;;;;;;3.27;1.37;;;17.90;99.90;;;;;;6940143;28;20134;-80
2022/06/07 01:59:48;;;;;;;3.75;1.42;;;17.90;99.90;;;;;;6941084;28;20049;-79
2022/06/07 02:03:10;;;;;;;2.78;1.00;;;17.90;99.90;;;;;;6941104;28;20203;-80
2022/06/07 02:06:32;;;;;;;3.77;1.20;;;17.80;99.90;;;;;;6940527;28;20084;-80
2022/06/07 02:09:54;;;;;;;2.80;1.25;;;17.80;99.90;;;;;;6940673;28;20373;-81
2022/06/07 02:13:19;;;;;;;2.67;1.20;;;17.70;99.90;;;;;;6939310;28;20085;-80
2022/06/07 02:16:41;;;;;;;2.78;1.17;;;17.70;99.90;;;;;;6941156;28;20377;-80
2022/06/07 02:20:04;;;;;;;4.28;1.23;;;17.70;99.90;;;;;;6939725;28;20077;-79
2022/06/07 02:23:27;;;;;;;4.10;1.55;;;17.70;99.90;;;;;;6940655;28;20045;-80
2022/06/07 02:26:53;;;;;;;4.43;1.30;;;17.70;99.90;;;;;;6937517;28;20543;-81
2022/06/07 02:30:16;;;;;;;3.45;1.30;;;17.70;99.90;;;;;;6940736;28;20077;-78
2022/06/07 02:33:40;;;;;;;3.40;1.30;;;17.80;99.90;;;;;;6939749;28;20080;-79
2022/06/07 02:37:07;;;;;;;4.07;1.23;;;17.80;99.90;;;;;;6938878;28;20088;-78
2022/06/07 02:40:29;;;;;;;3.47;1.40;;;17.80;99.90;;;;;;6941643;28;20053;-79
2022/06/07 02:43:51;;;;;;;2.95;1.13;;;17.80;99.90;;;;;;6940271;28;20396;-79
2022/06/07 02:47:14;;;;;;;3.80;1.20;;;17.80;99.90;;;;;;6937740;28;20069;-80
2022/06/07 02:50:37;;;;;;;2.30;1.27;;;17.70;99.90;;;;;;6941006;28;20411;-79
2022/06/07 02:53:59;;;;;;;2.70;1.20;;;17.70;99.90;;;;;;6938754;28;20436;-80
2022/06/07 02:57:21;;;;;;;3.95;1.27;;;17.70;99.90;;;;;;6939192;28;20501;-79
2022/06/07 03:00:43;;;;;;;4.22;1.33;;;17.70;99.90;;;;;;6941127;28;20045;-80
2022/06/07 03:04:07;;;;;;;3.73;1.20;;;17.60;99.90;;;;;;6936012;28;20518;-79
2022/06/07 03:07:29;;;;;;;3.10;1.23;;;17.60;99.90;;;;;;6939478;28;20339;-80
2022/06/07 03:10:51;;;;;;;2.27;1.03;;;17.60;99.90;;;;;;6939297;28;20073;-81
2022/06/07 03:14:14;;;;;;;4.63;1.63;;;17.50;99.90;;;;;;6939922;28;20348;-80
2022/06/07 03:17:36;;;;;;;2.72;1.13;;;17.60;99.90;;;;;;6937067;28;20048;-80
2022/06/07 03:20:59;;;;;;;3.35;1.35;;;17.60;99.90;;;;;;6938552;28;20187;-80
2022/06/07 03:24:22;;;;;;;3.78;1.52;;;17.60;99.90;;;;;;6940747;28;20415;-79
2022/06/07 03:27:44;;;;;;;3.05;1.20;;;17.50;99.90;;;;;;6943039;28;20046;-80
2022/06/07 03:31:09;;;;;;;3.40;1.27;;;17.50;99.90;;;;;;6943813;28;20092;-79
2022/06/07 03:34:31;;;;;;;3.17;1.30;;;17.50;99.90;;;;;;6946543;28;20318;-78
2022/06/07 03:37:55;;;;;;;3.10;1.10;;;17.40;99.90;;;;;;6945077;28;20138;-77
2022/06/07 03:41:19;;;;;;;2.65;1.40;;;17.40;99.90;;;;;;6944145;28;20610;-79
2022/06/07 03:44:41;;;;;;;3.75;1.50;;;17.30;99.90;;;;;;6928642;28;20061;-79
2022/06/07 03:48:04;;;;;;;2.95;1.30;;;17.30;99.90;;;;;;6943022;28;20142;-79
2022/06/07 03:51:29;;;;;;;2.63;1.23;;;17.30;99.90;;;;;;6942477;28;20045;-76
2022/06/07 03:54:53;;;;;;;3.35;1.33;;;17.40;99.90;;;;;;6944530;28;20084;-79
2022/06/07 03:58:15;;;;;;;3.50;1.45;;;17.40;99.90;;;;;;6942431;28;20080;-78
2022/06/07 04:01:37;;;;;;;4.18;1.77;;;17.40;99.90;;;;;;6943303;28;20087;-79
2022/06/07 04:05:00;;;;;;;7.97;1.55;;;17.40;99.90;;;;;;6942210;28;20051;-78
2022/06/07 04:08:23;;;;;;;4.75;1.92;;;17.50;99.90;;;;;;6942680;28;20052;-78
2022/06/07 04:11:46;;;;;;;3.90;1.60;;;17.40;99.90;;;;;;6943961;28;20092;-77
2022/06/07 04:15:09;;;;;;;3.03;1.40;;;17.40;99.90;;;;;;6943708;28;20084;-79
2022/06/07 04:18:31;;;;;;;4.43;1.58;;;17.40;99.90;;;;;;6940317;28;20077;-78
2022/06/07 04:21:53;;;;;;;3.27;1.60;;;17.40;99.90;;;;;;6943256;28;20489;-79
2022/06/07 04:25:15;;;;;;;3.43;1.40;;;17.40;99.90;;;;;;6942106;28;20351;-79
2022/06/07 04:28:39;;;;;;;3.97;1.33;;;17.30;99.90;;;;;;6933175;28;20049;-80
2022/06/07 04:32:01;;;;;;;3.10;1.42;;;17.40;99.90;;;;;;6942065;28;20064;-79
2022/06/07 04:35:24;;;;;;;3.67;1.40;;;17.40;99.90;;;;;;6945127;28;20057;-79
2022/06/07 04:38:47;;;;;;;4.28;1.38;;;17.40;99.90;;;;;;6944581;28;20087;-79
2022/06/07 04:42:10;;;;;;;4.28;1.70;;;17.30;99.90;;;;;;6944957;28;20045;-78
2022/06/07 04:45:33;;;;;;;3.65;1.40;;;17.30;99.90;;;;;;6944933;28;20569;-79
2022/06/07 04:48:56;;;;;;;3.45;1.38;;;17.30;99.90;;;;;;6944938;28;20150;-79
2022/06/07 04:52:18;;;;;;;4.18;1.30;;;17.30;99.90;;;;;;6944778;28;20045;-79
2022/06/07 04:55:40;;;;;;;2.97;1.30;;;17.40;99.90;;;;;;6945019;28;20056;-78
2022/06/07 04:59:06;;;;;;;3.47;1.20;;;17.40;99.90;;;;;;6944568;28;20797;-79
2022/06/07 05:02:29;;;;;;;4.05;1.33;;;17.40;99.90;;;;;;6948723;28;20053;-78
2022/06/07 05:05:51;;;;;;;3.55;1.40;;;17.40;99.90;;;;;;6948321;28;20065;-78
2022/06/07 05:09:18;;;;;;;3.60;1.40;;;17.50;99.90;;;;;;6947933;28;20512;-76
2022/06/07 05:12:40;;;;;;;3.72;1.30;;;17.50;99.90;;;;;;6944434;28;20453;-79
2022/06/07 05:16:02;;;;;;;3.83;1.48;;;17.60;99.90;;;;;;6944669;28;20046;-78
2022/06/07 05:19:26;;;;;;;5.18;1.42;;;17.60;99.90;;;;;;6944581;28;20088;-79
2022/06/07 05:22:48;;;;;;;2.78;1.40;;;17.60;99.90;;;;;;6944169;28;20052;-79
2022/06/07 05:26:15;;;;;;;2.93;1.30;;;17.60;99.90;;;;;;6943783;28;20088;-79
2022/06/07 05:29:46;;;;;;;2.97;1.40;;;17.60;99.90;;;;;;6943864;28;20304;-78
2022/06/07 05:33:08;;;;;;;3.85;1.40;;;17.70;99.90;;;;;;6943964;28;20042;-78
2022/06/07 05:36:31;;;;;;;4.17;1.70;;;17.70;99.90;;;;;;6944104;28;20081;-79
2022/06/07 05:39:53;;;;;;;3.28;1.38;;;17.70;99.90;;;;;;6943525;28;20081;-79
2022/06/07 05:43:15;;;;;;;5.03;1.60;;;17.80;99.90;;;;;;6943566;28;20487;-79
2022/06/07 05:46:37;;;;;;;3.07;1.50;;;17.80;99.90;;;;;;6943330;28;20364;-78
2022/06/07 05:50:01;;;;;;;3.20;1.27;;;17.80;99.90;;;;;;6942818;28;20794;-78
2022/06/07 05:53:24;;;;;;;4.03;1.50;;;17.90;99.90;;;;;;6943099;28;20550;-78
2022/06/07 05:56:46;;;;;;;3.13;1.27;;;17.90;99.90;;;;;;6943072;28;20080;-77
2022/06/07 06:00:10;;;;;;;3.70;1.40;;;18.00;99.90;;;;;;6943352;28;20072;-74
2022/06/07 06:03:32;;;;;;;3.00;1.45;;;17.80;99.90;;;;;;6942911;28;20100;-76
2022/06/07 06:06:56;;;;;;;4.93;1.42;;;17.70;99.90;;;;;;6942932;28;20514;-76
2022/06/07 06:10:22;;;;;;;2.67;1.42;;;17.70;99.90;;;;;;6943005;28;20053;-77
2022/06/07 06:13:44;;;;;;;3.67;1.70;;;17.50;99.90;;;;;;6942892;28;20064;-75
2022/06/07 06:17:06;;;;;;;3.40;1.63;;;17.50;99.90;;;;;;6942946;28;20515;-79
2022/06/07 06:20:28;;;;;;;2.88;1.63;;;17.50;99.90;;;;;;6943141;28;20049;-78
2022/06/07 06:23:51;;;;;;;5.22;2.03;;;17.60;99.90;;;;;;6943034;28;20085;-79
2022/06/07 06:27:14;;;;;;;3.83;1.80;;;17.70;99.90;;;;;;6943323;28;20419;-78
2022/06/07 06:30:36;;;;;;;3.25;1.60;;;17.70;99.90;;;;;;6942440;28;20545;-78
2022/06/07 06:33:58;;;;;;;4.32;1.60;;;17.80;99.90;;;;;;6942532;28;20080;-78
2022/06/07 06:37:20;;;;;;;4.27;1.47;;;17.80;99.90;;;;;;6942949;28;20073;-78
2022/06/07 06:40:43;;;;;;;3.42;1.45;;;17.80;99.90;;;;;;6942316;28;20796;-77
2022/06/07 06:44:07;;;;;;;3.40;1.60;;;17.80;99.90;;;;;;6942615;28;20046;-78
2022/06/07 06:47:29;;;;;;;3.13;1.60;;;17.90;99.90;;;;;;6942249;28;20127;-79
2022/06/07 06:51:00;;;;;;;3.08;1.70;;;17.80;99.90;;;;;;6942397;28;20136;-78
2022/06/07 06:54:22;;;;;;;4.65;1.73;;;18.00;99.90;;;;;;6942416;28;20081;-78
2022/06/07 06:57:44;;;;;;;3.38;1.83;;;17.80;99.90;;;;;;6942807;28;20049;-78
2022/06/07 07:01:11;;;;;;;5.65;2.10;;;17.80;99.90;;;;;;6942783;28;20399;-78
2022/06/07 07:04:33;;;;;;;4.57;2.00;;;17.80;99.90;;;;;;6947562;28;20057;-78
2022/06/07 07:07:55;;;;;;;3.77;1.53;;;17.80;99.90;;;;;;6947619;28;20088;-78
2022/06/07 07:11:21;;;;;;;3.05;1.60;;;17.90;99.90;;;;;;6947294;28;20064;-78
2022/06/07 07:14:43;;;;;;;3.33;1.50;;;17.90;99.90;;;;;;6947310;28;20049;-78
2022/06/07 07:18:07;;;;;;;5.28;1.85;;;17.90;99.90;;;;;;6947378;28;20507;-77
2022/06/07 07:21:34;;;;;;;3.65;1.67;;;17.90;99.90;;;;;;6947552;28;20041;-77
2022/06/07 07:24:56;;;;;;;5.75;1.67;;;18.00;99.90;;;;;;6946967;28;20045;-77
2022/06/07 07:28:18;;;;;;;4.30;1.75;;;18.10;99.90;;;;;;6947247;28;20097;-77
2022/06/07 07:31:41;;;;;;;5.20;1.70;;;18.20;99.90;;;;;;6947162;28;20088;-76
2022/06/07 07:35:06;;;;;;;4.22;1.70;;;18.30;99.90;;;;;;6947455;28;20049;-77
2022/06/07 07:38:28;;;;;;;2.92;1.50;;;18.30;99.90;;;;;;6946877;28;20383;-76
2022/06/07 07:41:51;;;;;;;3.33;1.50;;;18.20;99.90;;;;;;6947140;28;20081;-77
2022/06/07 07:45:13;;;;;;;3.85;1.85;;;18.30;99.90;;;;;;6946394;28;20139;-76
2022/06/07 07:48:35;;;;;;;4.15;1.35;;;18.40;99.90;;;;;;6946782;28;20076;-75
2022/06/07 07:51:59;;;;;;;4.03;1.80;;;18.50;99.90;;;;;;6946371;28;20056;-77
2022/06/07 07:55:21;;;;;;;3.70;1.40;;;18.50;99.90;;;;;;6946208;28;20303;-76
2022/06/07 07:58:44;;;;;;;3.08;1.70;;;18.50;99.90;;;;;;6946362;28;20053;-78
2022/06/07 08:02:06;;;;;;;3.50;1.67;;;18.60;99.90;;;;;;6948545;28;20055;-77
2022/06/07 08:05:28;;;;;;;4.30;1.75;;;18.60;99.90;;;;;;6947561;28;20507;-77
2022/06/07 08:08:54;;;;;;;4.13;1.60;;;18.80;99.90;;;;;;6946526;28;20084;-76
2022/06/07 08:12:16;;;;;;;2.70;1.25;;;18.90;99.90;;;;;;6946015;28;20054;-76
2022/06/07 08:15:39;;;;;;;2.83;1.30;;;18.90;99.90;;;;;;6945652;28;20505;-77
2022/06/07 08:19:01;;;;;;;3.53;1.30;;;18.80;99.90;;;;;;6945648;28;20073;-76
2022/06/07 08:22:23;;;;;;;3.20;1.60;;;18.90;99.90;;;;;;6945740;28;20506;-77
2022/06/07 08:25:46;;;;;;;3.97;1.77;;;19.00;99.90;;;;;;6945397;28;20319;-77
2022/06/07 08:29:08;;;;;;;4.93;1.65;;;19.00;99.90;;;;;;6945442;28;20052;-78
2022/06/07 08:32:30;;;;;;;3.55;1.40;;;19.10;99.20;;;;;;6945519;28;20075;-79
2022/06/07 08:39:33;;;;;;;4.68;1.67;;;19.20;98.90;;;;;;6945498;28;20085;-78
2022/06/07 08:42:59;;;;;;;3.22;1.45;;;19.30;98.50;;;;;;6945557;28;20045;-79
2022/06/07 08:46:28;;;;;;;5.25;1.75;;;19.40;97.90;;;;;;6945278;28;20135;-78
2022/06/07 08:49:52;;;;;;;3.13;1.27;;;19.50;98.20;;;;;;6944912;28;20042;-78
2022/06/07 08:53:21;;;;;;;3.10;1.35;;;19.60;98.70;;;;;;6944681;28;20087;-78
2022/06/07 08:56:43;;;;;;;2.88;1.65;;;19.40;97.10;;;;;;6944655;28;20092;-78
2022/06/07 09:00:18;;;;;;;3.50;1.67;;;19.50;97.20;;;;;;6946289;28;20504;-77
2022/06/07 09:03:59;;;;;;;3.65;1.33;;;19.50;97.50;;;;;;6946166;28;20455;-79
2022/06/07 09:07:21;;;;;;;3.47;1.50;;;19.70;97.30;;;;;;6947071;28;20499;-76
2022/06/07 09:14:29;;;;;;;2.85;1.40;;;19.90;96.60;;;;;;6944694;28;20050;-79
2022/06/07 09:17:57;;;;;;;4.00;1.30;;;20.00;96.80;;;;;;6946207;28;20042;-77
2022/06/07 09:21:28;;;;;;;4.65;1.67;;;20.10;96.20;;;;;;6944396;28;20049;-79
2022/06/07 09:24:57;;;;;;;3.75;1.42;;;20.30;96.50;;;;;;6946217;28;20057;-78
2022/06/07 09:28:26;;;;;;;3.35;1.38;;;20.20;96.10;;;;;;6945761;28;20057;-79
2022/06/07 09:31:51;;;;;;;3.15;1.40;;;20.30;96.40;;;;;;6943705;28;20499;-79
2022/06/07 09:35:23;;;;;;;3.55;1.40;;;20.30;95.70;;;;;;6943858;28;20123;-78
2022/06/07 09:38:51;;;;;;;3.80;1.52;;;20.30;95.40;;;;;;6943687;28;20495;-79
2022/06/07 09:42:23;;;;;;;2.65;1.27;;;20.30;95.60;;;;;;6943699;28;20045;-79
2022/06/07 09:45:55;;;;;;;4.85;1.40;;;20.40;95.40;;;;;;6943446;28;20111;-77
2022/06/07 09:49:28;;;;;;;3.65;1.30;;;20.50;95.90;;;;;;6943460;28;20088;-78
2022/06/07 09:52:56;;;;;;;3.67;1.60;;;20.50;94.30;;;;;;6943292;28;20439;-78
2022/06/07 09:56:26;;;;;;;3.20;1.10;;;20.50;93.70;;;;;;6943360;28;20451;-77
2022/06/07 10:00:05;;;;;;;2.90;1.15;;;20.60;94.20;;;;;;6943486;28;20167;-78
2022/06/07 10:03:40;;;;;;;2.47;1.27;;;20.50;93.00;;;;;;6943021;28;20080;-78
2022/06/07 10:07:10;;;;;;;3.25;1.30;;;20.50;92.10;;;;;;6943358;28;20053;-79
2022/06/07 10:10:41;;;;;;;2.22;1.00;;;20.50;92.00;;;;;;6942816;28;20146;-77
2022/06/07 10:14:23;;;;;;;2.10;1.00;;;20.50;92.80;;;;;;6943383;28;20072;-78
2022/06/07 10:18:04;;;;;;;3.97;1.20;;;20.50;92.70;;;;;;6949928;28;20041;-77
2022/06/07 10:21:56;;;;;;;1.98;1.00;;;20.50;92.20;;;;;;6942902;28;20045;-78
2022/06/07 10:25:24;;;;;;;2.85;1.10;;;20.50;92.30;;;;;;6942803;28;20052;-78
2022/06/07 10:29:06;;;;;;;3.25;1.00;;;20.70;91.80;;;;;;6942706;28;20056;-78
2022/06/07 10:32:37;;;;;;;;;;;20.60;89.80;;;;;;6943063;28;20081;-79
2022/06/07 10:36:12;;;;;;;3.30;0.80;;;20.50;89.10;;;;;;6941726;28;20409;-77
2022/06/07 10:39:52;;;;;;;5.25;1.58;;;20.60;88.40;;;;;;6942459;28;20057;-76
2022/06/07 10:43:21;;;;;;;2.17;0.80;;;20.60;89.10;;;;;;6942626;28;20081;-78
2022/06/07 10:46:45;;;;;;;2.13;0.90;;;20.70;89.80;;;;;;6942203;28;20055;-77
2022/06/07 10:50:19;;;;;;;5.00;1.02;;;20.80;88.60;;;;;;6942386;28;20093;-76
2022/06/07 10:53:45;;;;;;;3.25;0.90;;;20.90;89.60;;;;;;6942343;28;20053;-76
2022/06/07 10:57:16;;;;;;;4.40;1.10;;;20.90;89.30;;;;;;6942333;28;20080;-74
2022/06/07 11:00:45;;;;;;;2.72;0.80;;;21.00;89.50;;;;;;6942338;28;20041;-77
2022/06/07 11:11:57;;;;;;;2.30;0.90;;;21.20;88.70;;;;;;6895313;28;20080;-79
2022/06/07 11:15:31;;;;;;;2.42;1.00;;;21.30;89.30;;;;;;6944688;28;20061;-78
2022/06/07 11:18:53;;;;;;;3.13;0.93;;;21.40;88.80;;;;;;6946682;28;20052;-76
2022/06/07 11:22:21;;;;;;;1.70;0.80;;;21.60;86.70;;;;;;6944864;28;20053;-77
2022/06/07 11:26:02;;;;;;;1.95;0.80;;;21.70;85.60;;;;;;6944069;28;20183;-78
2022/06/07 11:29:28;;;;;;;1.50;0.70;;;21.60;85.20;;;;;;6944800;28;20045;-77
2022/06/07 11:32:55;;;;;;;1.83;0.90;;;21.70;80.90;;;;;;6944252;28;20392;-76
2022/06/07 11:36:36;;;;;;;1.48;0.73;;;21.90;81.60;;;;;;6942001;28;20046;-79
2022/06/07 11:39:59;;;;;;;2.92;1.17;;;22.10;81.70;;;;;;6942203;28;20106;-78
2022/06/07 11:43:57;;;;;;;1.80;0.90;;;22.20;80.00;;;;;;6941906;28;20088;-79
2022/06/07 11:47:33;;;;;;;2.63;0.80;;;22.10;80.80;;;;;;6941977;28;20049;-80
2022/06/07 11:51:03;;;;;;;2.65;1.30;;;22.20;81.90;;;;;;6946377;28;20049;-78
2022/06/07 11:54:29;;;;;;;2.40;0.90;;;22.10;80.50;;;;;;6946257;28;20049;-77
2022/06/07 11:58:03;;;;;;;3.25;0.85;;;22.20;75.50;;;;;;6946209;28;20108;-78
2022/06/07 12:01:40;;;;;;;4.47;1.23;;;22.30;77.70;;;;;;6946084;28;20060;-79
2022/06/07 12:05:25;;;;;;;2.42;0.90;;;22.40;78.70;;;;;;6946000;28;20049;-78
2022/06/07 12:09:03;;;;;;;2.45;0.70;;;22.60;76.60;;;;;;6946066;28;20050;-79
2022/06/07 12:12:31;;;;;;;1.40;0.70;;;22.70;78.90;;;;;;6945643;28;20060;-79
2022/06/07 12:15:56;;;;;;;1.35;0.70;;;22.80;78.80;;;;;;6946578;28;20130;-78
2022/06/07 12:19:22;;;;;;;1.65;0.70;;;23.00;77.00;;;;;;6945843;28;20092;-79
2022/06/07 12:22:44;;;;;;;2.92;0.80;;;23.00;73.90;;;;;;6945744;28;20176;-79
2022/06/07 12:26:19;;;;;;;2.28;0.90;;;23.10;74.70;;;;;;6945491;28;20041;-79
2022/06/07 12:29:44;;;;;;;1.20;0.68;;;23.00;75.30;;;;;;6945450;28;20076;-79
2022/06/07 12:33:23;;;;;;;2.00;0.70;;;23.20;73.80;;;;;;6945405;28;20053;-79
2022/06/07 12:36:51;;;;;;;2.58;0.80;;;23.30;76.60;;;;;;6945229;28;20045;-79
2022/06/07 12:40:26;;;;;;;1.80;0.70;;;23.30;72.80;;;;;;6945345;28;20088;-80
2022/06/07 12:43:51;;;;;;;2.25;0.70;;;23.10;72.60;;;;;;6945170;28;20099;-80
2022/06/07 12:47:24;;;;;;;2.17;0.60;;;23.00;73.80;;;;;;6944935;28;20053;-80
2022/06/07 12:50:48;;;;;;;1.85;0.80;;;23.00;72.90;;;;;;6945060;28;20042;-79
2022/06/07 12:54:18;;;;;;;2.10;0.73;;;22.90;73.20;;;;;;6944834;28;20069;-80
2022/06/07 12:57:47;;;;;;;1.63;0.50;;;22.90;72.50;;;;;;6944642;28;20053;-77
2022/06/07 13:01:25;;;;;;;1.48;0.60;;;22.80;72.70;;;;;;6944151;28;20045;-79
2022/06/07 13:04:51;;;;;;;1.35;0.63;;;22.70;73.80;;;;;;6945188;28;20092;-79
2022/06/07 13:08:21;;;;;;;2.08;0.70;;;22.70;72.60;;;;;;6944401;28;20049;-80
2022/06/07 13:11:43;;;;;;;2.25;0.73;;;22.70;72.90;;;;;;6944001;28;20053;-80
2022/06/07 13:15:15;;;;;;;2.47;0.68;;;22.60;73.50;;;;;;6944922;28;20100;-80
2022/06/07 13:18:39;;;;;;;2.00;0.80;;;22.70;74.50;;;;;;6944345;28;20067;-79
2022/06/07 13:22:13;;;;;;;1.85;0.70;;;22.70;74.40;;;;;;6944063;28;20041;-79
2022/06/07 13:25:36;;;;;;;2.17;0.80;;;22.60;76.30;;;;;;6943724;28;20164;-79
2022/06/07 13:29:17;;;;;;;2.17;0.60;;;22.50;75.50;;;;;;6943815;28;20084;-81
2022/06/07 13:32:39;;;;;;;4.55;0.80;;;22.50;76.30;;;;;;6944045;28;20518;-79
2022/06/07 13:36:05;;;;;;;3.05;0.75;;;22.50;76.40;;;;;;6943931;28;20138;-80
2022/06/07 13:39:29;;;;;;;2.50;0.70;;;22.40;76.70;;;;;;6943716;28;20529;-79
2022/06/07 13:43:03;;;;;;;2.78;0.85;;;22.50;77.50;;;;;;6943647;28;20045;-80
2022/06/07 13:46:30;;;;;;;3.72;0.80;;;22.40;76.50;;;;;;6943101;28;20096;-80
2022/06/07 13:54:02;;;;;;;1.85;0.60;;;22.40;76.40;;;;;;6943228;28;20495;-80
2022/06/07 13:57:24;;;;;;;2.00;0.93;;;22.40;75.20;;;;;;6941580;28;20491;-80
2022/06/07 14:00:49;;;;;;;2.15;0.73;;;22.40;74.20;;;;;;6943004;28;20081;-80
2022/06/07 14:04:23;;;;;;;2.13;0.80;;;22.50;74.40;;;;;;6943021;28;20091;-80
2022/06/07 14:07:45;;;;;;;2.10;0.82;;;22.50;75.10;;;;;;6942738;28;20056;-80
2022/06/07 14:11:07;;;;;;;2.20;0.73;;;22.60;73.10;;;;;;6928900;28;20088;-79
2022/06/07 14:14:30;;;;;;;2.05;0.65;;;22.70;73.50;;;;;;6915680;28;20108;-79
2022/06/07 14:17:53;;;;;;;1.83;0.70;;;23.00;73.20;;;;;;6915705;28;20400;-80
2022/06/07 14:21:15;;;;;;;3.45;1.00;;;23.30;73.90;;;;;;6915584;28;20175;-79
2022/06/07 14:24:37;;;;;;;1.77;0.70;;;23.50;74.90;;;;;;6915772;28;20053;-79
2022/06/07 14:28:00;;;;;;;3.10;0.80;;;23.70;72.80;;;;;;6915639;28;20565;-80
2022/06/07 14:31:25;;;;;;;2.63;0.90;;;23.80;75.60;;;;;;6915273;28;20041;-79
2022/06/07 14:34:49;;;;;;;3.15;0.93;;;24.00;75.00;;;;;;6915503;28;20480;-77
2022/06/07 14:38:13;;;;;;;2.28;0.90;;;24.00;74.60;;;;;;6915085;28;20053;-79
2022/06/07 14:41:35;;;;;;;2.20;0.80;;;24.20;75.40;;;;;;6915215;28;20041;-77
2022/06/07 14:44:58;;;;;;;2.42;0.93;;;24.40;72.70;;;;;;6915231;28;20053;-77
2022/06/07 14:48:29;;;;;;;1.25;0.60;;;24.70;71.80;;;;;;6915156;28;20052;-76
2022/06/07 14:51:53;;;;;;;2.08;0.70;;;25.00;68.50;;;;;;6915051;28;20097;-78
2022/06/07 14:55:21;;;;;;;1.63;0.80;;;24.70;67.60;;;;;;6918389;28;20136;-79
2022/06/07 14:58:45;;;;;;;2.92;0.80;;;24.80;68.50;;;;;;6939440;28;20057;-78
2022/06/07 15:02:19;;;;;;;1.67;0.60;;;25.10;70.10;;;;;;6923103;28;20045;-77
2022/06/07 15:05:43;;;;;;;2.25;0.70;;;25.50;69.80;;;;;;6932193;28;20602;-78
2022/06/07 15:09:15;;;;;;;1.38;0.60;;;25.80;66.80;;;;;;6933617;28;20058;-77
2022/06/07 15:12:37;;;;;;;2.20;1.05;;;26.20;68.30;;;;;;6936881;28;20053;-79
2022/06/07 15:16:04;;;;;;;1.83;0.70;;;26.50;64.20;;;;;;6935912;28;20496;-79
2022/06/07 15:19:30;;;;;;;1.30;0.60;;;26.70;65.60;;;;;;6927547;28;20645;-81
2022/06/07 15:22:54;;;;;;;1.67;0.77;;;26.70;64.30;;;;;;6925194;28;20101;-79
2022/06/07 15:26:21;;;;;;;3.58;0.80;;;27.00;65.30;;;;;;6922909;28;20088;-79
2022/06/07 15:29:52;;;;;;;1.77;0.80;;;27.30;64.00;;;;;;6922408;28;20050;-80
2022/06/07 15:33:16;;;;;;;1.20;0.60;;;27.60;60.40;;;;;;6921196;28;20042;-79
2022/06/07 15:36:40;;;;;;;1.20;0.50;;;27.50;60.90;;;;;;6917769;28;20100;-79
2022/06/07 15:40:06;;;;;;;2.15;0.70;;;27.30;59.40;;;;;;6922421;28;20085;-79
2022/06/07 15:43:30;;;;;;;1.80;0.80;;;26.70;60.10;;;;;;6900328;28;20499;-79
2022/06/07 15:46:52;;;;;;;1.05;0.50;;;26.20;60.40;;;;;;6922214;28;20092;-80
2022/06/07 15:50:17;;;;;;;2.08;0.65;;;26.00;60.60;;;;;;6920512;28;20376;-79
2022/06/07 15:53:40;;;;;;;1.13;0.63;;;25.70;61.20;;;;;;6919115;28;20053;-80
2022/06/07 15:57:02;;;;;;;;;;;25.50;61.80;;;;;;6919484;28;20074;-79
2022/06/07 16:00:26;;;;;;;1.40;0.60;;;25.30;62.70;;;;;;6929457;28;19928;-77
2022/06/07 16:03:48;;;;;;;1.45;0.70;;;25.20;63.70;;;;;;6924580;28;20060;-78
2022/06/07 16:07:11;;;;;;;2.28;0.60;;;25.00;65.40;;;;;;6921033;28;20049;-78
2022/06/07 16:10:33;;;;;;;1.95;0.90;;;24.80;67.20;;;;;;6933459;28;20069;-79
2022/06/07 16:13:56;;;;;;;;;;;24.60;68.20;;;;;;6929025;28;20550;-78
2022/06/07 16:17:19;;;;;;;3.13;0.80;;;24.40;68.30;;;;;;6917015;28;19964;-78
2022/06/07 16:20:42;;;;;;;2.65;0.85;;;24.40;69.20;;;;;;6904783;28;20054;-78
2022/06/07 16:24:05;;;;;;;;;;;24.20;69.40;;;;;;6920664;28;20050;-77
2022/06/07 16:35:02;;;;;;;3.28;1.05;;;23.80;70.90;;;;;;6820699;28;20043;-79
2022/06/07 16:38:29;;;;;;;1.95;1.00;;;23.90;71.80;;;;;;6843057;28;20494;-80
2022/06/07 16:41:51;;;;;;;2.05;0.80;;;23.70;72.00;;;;;;6941044;28;20128;-76
2022/06/07 16:45:14;;;;;;;2.42;0.90;;;23.50;73.30;;;;;;6940683;28;20076;-79
2022/06/07 16:48:36;;;;;;;3.08;1.02;;;23.40;75.40;;;;;;6941680;28;20459;-78
2022/06/07 16:52:03;;;;;;;3.55;1.30;;;23.10;77.30;;;;;;6943441;28;20048;-89
2022/06/07 16:55:25;;;;;;;6.95;1.20;;;22.80;79.20;;;;;;6936041;28;20088;-83
2022/06/07 16:58:48;;;;;;;2.97;1.10;;;22.50;81.30;;;;;;6939689;28;20055;-87
2022/06/07 17:02:10;;;;;;;3.40;0.80;;;22.00;84.80;;;;;;6906795;28;20056;-80
2022/06/07 17:05:36;;;;;;;2.45;0.75;;;21.50;87.10;;;;;;6899648;28;20057;-84
2022/06/07 17:09:00;;;;;;;2.85;0.80;;;21.00;89.40;;;;;;6928963;28;20050;-87
2022/06/07 17:12:23;;;;;;;5.32;1.20;;;20.70;93.30;;;;;;6932011;28;20388;-78
2022/06/07 17:15:45;;;;;;;4.13;1.17;;;20.00;99.40;;;;;;6920628;28;20176;-81
2022/06/07 17:19:11;;;;;;;5.13;0.98;;;19.50;99.90;;;;;;6916495;28;20077;-79
2022/06/07 17:22:33;;;;;;;5.68;1.00;;;19.10;99.90;;;;;;6916755;28;20408;-79
2022/06/07 17:25:57;;;;;;;4.72;1.10;;;19.10;99.90;;;;;;6936540;28;20051;-80
2022/06/07 17:29:19;;;;;;;4.15;1.10;;;18.90;99.90;;;;;;6942477;28;20087;-77
2022/06/07 17:32:41;;;;;;;4.72;1.30;;;18.80;99.90;;;;;;6939625;28;20041;-78
2022/06/07 17:36:06;;;;;;;4.55;1.70;;;18.70;99.90;;;;;;6929939;28;20108;-78
2022/06/07 17:39:28;;;;;;;4.00;1.30;;;18.60;99.90;;;;;;6929487;28;20514;-80
2022/06/07 17:42:52;;;;;;;3.22;0.90;;;18.70;99.90;;;;;;6941515;28;20052;-80
2022/06/07 17:46:14;;;;;;;2.88;0.70;;;18.70;99.90;;;;;;6939913;28;20080;-78
2022/06/07 17:49:36;;;;;;;3.42;0.82;;;19.10;99.90;;;;;;6936664;28;20491;-80
2022/06/07 17:52:59;;;;;;;2.85;0.82;;;19.60;99.90;;;;;;6922260;28;20076;-78
2022/06/07 17:56:23;;;;;;;2.35;0.60;;;20.10;99.90;;;;;;6934544;28;20056;-78
2022/06/07 17:59:47;;;;;;;3.90;0.82;;;20.40;99.90;;;;;;6930974;28;20200;-77
2022/06/07 18:03:14;;;;;;;2.50;0.80;;;20.40;99.90;;;;;;6936819;28;20053;-78
2022/06/07 18:06:36;;;;;;;1.92;0.70;;;20.70;99.90;;;;;;6936639;28;20053;-76
2022/06/07 18:09:58;;;;;;;2.03;0.57;;;20.90;99.90;;;;;;6935951;28;20092;-78
2022/06/07 18:13:23;;;;;;;2.15;0.60;;;20.90;99.90;;;;;;6930662;28;20510;-75
2022/06/07 18:16:48;;;;;;;3.80;0.88;;;20.70;99.90;;;;;;6937946;28;20049;-76
2022/06/07 18:20:12;;;;;;;3.20;1.00;;;20.60;99.90;;;;;;6922848;28;20139;-77
2022/06/07 18:23:35;;;;;;;2.90;0.90;;;20.50;99.90;;;;;;6906933;28;20049;-78